KIZG 220354Z AUTO 27009G16KT 220V290 10SM CLR M16/M24 A2996 RMK AO2 SLP159 T11611244 $